sensor_id;sensor_type;location;lat;lon;timestamp;pressure;altitude;pressure_sealevel;temperature;humidity
45078;BME280;60508;42.622;25.416;2023-12-14T00:01:40;96022.75;;;4.60;94.11
45078;BME280;60508;42.622;25.416;2023-12-14T00:04:28;96048.03;;;4.69;92.89
45078;BME280;60508;42.622;25.416;2023-12-14T00:06:54;96043.38;;;4.64;92.54
45078;BME280;60508;42.622;25.416;2023-12-14T00:09:41;96035.75;;;4.68;92.38
45078;BME280;60508;42.622;25.416;2023-12-14T00:12:10;96033.88;;;4.38;92.84
45078;BME280;60508;42.622;25.416;2023-12-14T00:14:57;96025.06;;;4.37;93.79
45078;BME280;60508;42.622;25.416;2023-12-14T00:17:24;96044.94;;;4.53;93.52
45078;BME280;60508;42.622;25.416;2023-12-14T00:19:51;96034.50;;;4.52;93.63
45078;BME280;60508;42.622;25.416;2023-12-14T00:22:18;96034.19;;;4.60;93.87
45078;BME280;60508;42.622;25.416;2023-12-14T00:24:44;96028.06;;;4.60;94.30
45078;BME280;60508;42.622;25.416;2023-12-14T00:27:11;96030.78;;;4.71;94.11
45078;BME280;60508;42.622;25.416;2023-12-14T00:29:58;96035.88;;;4.73;93.87
45078;BME280;60508;42.622;25.416;2023-12-14T00:32:25;96053.34;;;4.69;93.93
45078;BME280;60508;42.622;25.416;2023-12-14T00:34:52;96045.22;;;4.64;92.74
45078;BME280;60508;42.622;25.416;2023-12-14T00:37:19;96053.78;;;4.66;93.47
45078;BME280;60508;42.622;25.416;2023-12-14T00:39:45;96045.38;;;4.69;93.09
45078;BME280;60508;42.622;25.416;2023-12-14T00:42:32;96041.16;;;4.61;93.01
45078;BME280;60508;42.622;25.416;2023-12-14T00:44:59;96047.22;;;4.50;92.99
45078;BME280;60508;42.622;25.416;2023-12-14T00:47:46;96037.19;;;4.33;95.19
45078;BME280;60508;42.622;25.416;2023-12-14T00:50:12;96039.41;;;4.36;94.84
45078;BME280;60508;42.622;25.416;2023-12-14T00:52:40;96036.22;;;4.46;94.78
45078;BME280;60508;42.622;25.416;2023-12-14T00:55:27;96047.16;;;4.56;94.43
45078;BME280;60508;42.622;25.416;2023-12-14T00:57:53;96052.19;;;4.46;94.92
45078;BME280;60508;42.622;25.416;2023-12-14T01:00:20;96071.03;;;4.45;94.05
45078;BME280;60508;42.622;25.416;2023-12-14T01:03:07;96058.69;;;4.32;92.14
45078;BME280;60508;42.622;25.416;2023-12-14T01:05:34;96063.31;;;4.18;91.91
45078;BME280;60508;42.622;25.416;2023-12-14T01:08:00;96052.31;;;3.96;92.23
45078;BME280;60508;42.622;25.416;2023-12-14T01:10:28;96064.41;;;3.92;93.62
45078;BME280;60508;42.622;25.416;2023-12-14T01:12:54;96059.66;;;3.94;94.06
45078;BME280;60508;42.622;25.416;2023-12-14T01:15:21;96055.28;;;4.06;94.65
45078;BME280;60508;42.622;25.416;2023-12-14T01:17:48;96053.34;;;4.13;94.79
45078;BME280;60508;42.622;25.416;2023-12-14T01:20:34;96059.41;;;4.20;94.98
45078;BME280;60508;42.622;25.416;2023-12-14T01:23:05;96056.91;;;4.26;94.17
45078;BME280;60508;42.622;25.416;2023-12-14T01:25:51;96046.13;;;4.20;95.36
45078;BME280;60508;42.622;25.416;2023-12-14T01:28:19;96045.25;;;4.27;95.62
45078;BME280;60508;42.622;25.416;2023-12-14T01:30:45;96052.34;;;4.33;95.67
45078;BME280;60508;42.622;25.416;2023-12-14T01:33:32;96042.78;;;4.44;95.54
45078;BME280;60508;42.622;25.416;2023-12-14T01:36:01;96033.56;;;4.46;95.12
45078;BME280;60508;42.622;25.416;2023-12-14T01:38:28;96037.09;;;4.58;95.52
45078;BME280;60508;42.622;25.416;2023-12-14T01:41:15;96031.63;;;4.72;94.90
45078;BME280;60508;42.622;25.416;2023-12-14T01:43:42;96018.91;;;4.74;94.50
45078;BME280;60508;42.622;25.416;2023-12-14T01:46:09;96015.47;;;4.85;94.43
45078;BME280;60508;42.622;25.416;2023-12-14T01:48:57;96017.91;;;4.87;94.00
45078;BME280;60508;42.622;25.416;2023-12-14T01:51:23;96021.00;;;4.84;94.16
45078;BME280;60508;42.622;25.416;2023-12-14T01:54:10;96024.25;;;4.86;94.36
45078;BME280;60508;42.622;25.416;2023-12-14T01:56:37;96006.59;;;4.91;93.90
45078;BME280;60508;42.622;25.416;2023-12-14T01:59:04;96006.72;;;4.97;93.35
45078;BME280;60508;42.622;25.416;2023-12-14T02:01:47;96007.03;;;4.88;92.70
45078;BME280;60508;42.622;25.416;2023-12-14T02:04:18;96002.94;;;4.74;92.57
45078;BME280;60508;42.622;25.416;2023-12-14T02:06:45;95986.50;;;4.77;92.02
45078;BME280;60508;42.622;25.416;2023-12-14T02:09:12;95996.50;;;4.63;92.96
45078;BME280;60508;42.622;25.416;2023-12-14T02:11:59;96006.16;;;4.46;93.66
45078;BME280;60508;42.622;25.416;2023-12-14T02:14:26;96001.44;;;4.48;92.83
45078;BME280;60508;42.622;25.416;2023-12-14T02:16:53;96005.63;;;4.37;92.04
45078;BME280;60508;42.622;25.416;2023-12-14T02:19:20;95997.16;;;4.28;91.83
45078;BME280;60508;42.622;25.416;2023-12-14T02:22:06;95996.34;;;4.28;91.83
45078;BME280;60508;42.622;25.416;2023-12-14T02:24:33;95989.31;;;4.15;91.95
45078;BME280;60508;42.622;25.416;2023-12-14T02:27:00;95985.13;;;4.07;92.61
45078;BME280;60508;42.622;25.416;2023-12-14T02:29:26;95984.09;;;3.90;94.30
45078;BME280;60508;42.622;25.416;2023-12-14T02:31:53;95994.72;;;3.90;95.17
45078;BME280;60508;42.622;25.416;2023-12-14T02:34:40;95995.00;;;4.00;94.59
45078;BME280;60508;42.622;25.416;2023-12-14T02:37:07;95986.28;;;4.11;94.42
45078;BME280;60508;42.622;25.416;2023-12-14T02:39:34;95987.56;;;4.09;93.69
45078;BME280;60508;42.622;25.416;2023-12-14T02:42:21;95990.28;;;4.02;93.15
45078;BME280;60508;42.622;25.416;2023-12-14T02:44:55;95980.34;;;3.97;93.92
45078;BME280;60508;42.622;25.416;2023-12-14T02:47:23;95992.94;;;4.02;93.50
45078;BME280;60508;42.622;25.416;2023-12-14T02:49:49;95992.22;;;3.95;94.02
45078;BME280;60508;42.622;25.416;2023-12-14T02:52:16;95995.88;;;3.94;94.43
45078;BME280;60508;42.622;25.416;2023-12-14T02:54:43;95998.94;;;3.97;94.95
45078;BME280;60508;42.622;25.416;2023-12-14T02:57:09;96002.63;;;3.96;95.24
45078;BME280;60508;42.622;25.416;2023-12-14T02:59:36;96004.75;;;4.06;95.11
45078;BME280;60508;42.622;25.416;2023-12-14T03:02:03;95991.31;;;3.82;95.67
45078;BME280;60508;42.622;25.416;2023-12-14T03:04:29;96019.66;;;3.89;96.63
45078;BME280;60508;42.622;25.416;2023-12-14T03:06:56;96010.44;;;3.91;96.87
45078;BME280;60508;42.622;25.416;2023-12-14T03:09:43;96004.47;;;3.96;96.93
45078;BME280;60508;42.622;25.416;2023-12-14T03:12:11;95989.47;;;4.01;97.25
45078;BME280;60508;42.622;25.416;2023-12-14T03:14:38;95992.44;;;4.12;97.01
45078;BME280;60508;42.622;25.416;2023-12-14T03:17:27;96013.53;;;4.07;96.93
45078;BME280;60508;42.622;25.416;2023-12-14T03:19:53;96011.06;;;4.12;97.10
45078;BME280;60508;42.622;25.416;2023-12-14T03:22:20;96004.31;;;4.28;96.70
45078;BME280;60508;42.622;25.416;2023-12-14T03:24:47;95997.03;;;4.23;96.10
45078;BME280;60508;42.622;25.416;2023-12-14T03:27:13;96002.69;;;4.27;96.40
45078;BME280;60508;42.622;25.416;2023-12-14T03:29:40;96013.13;;;4.28;96.18
45078;BME280;60508;42.622;25.416;2023-12-14T03:32:07;96003.25;;;4.47;95.34
45078;BME280;60508;42.622;25.416;2023-12-14T03:34:34;96001.50;;;4.41;95.13
45078;BME280;60508;42.622;25.416;2023-12-14T03:37:00;96002.22;;;4.48;95.46
45078;BME280;60508;42.622;25.416;2023-12-14T03:39:28;95991.00;;;4.46;95.56
45078;BME280;60508;42.622;25.416;2023-12-14T03:42:14;95998.91;;;4.53;95.38
45078;BME280;60508;42.622;25.416;2023-12-14T03:44:41;96000.81;;;4.64;95.39
45078;BME280;60508;42.622;25.416;2023-12-14T03:47:08;95990.19;;;4.76;95.28
45078;BME280;60508;42.622;25.416;2023-12-14T03:49:38;96000.97;;;4.81;94.62
45078;BME280;60508;42.622;25.416;2023-12-14T03:52:05;95993.09;;;4.74;93.84
45078;BME280;60508;42.622;25.416;2023-12-14T03:54:52;96000.03;;;4.75;93.75
45078;BME280;60508;42.622;25.416;2023-12-14T03:57:19;95999.00;;;4.77;93.51
45078;BME280;60508;42.622;25.416;2023-12-14T03:59:46;96011.34;;;4.71;93.68
45078;BME280;60508;42.622;25.416;2023-12-14T04:02:33;95995.38;;;4.71;92.86
45078;BME280;60508;42.622;25.416;2023-12-14T04:05:19;96004.66;;;4.68;93.68
45078;BME280;60508;42.622;25.416;2023-12-14T04:08:06;96010.78;;;4.69;93.80
45078;BME280;60508;42.622;25.416;2023-12-14T04:10:33;95996.16;;;4.60;93.85
45078;BME280;60508;42.622;25.416;2023-12-14T04:13:00;95994.22;;;4.67;94.11
45078;BME280;60508;42.622;25.416;2023-12-14T04:15:27;96001.75;;;4.70;93.34
45078;BME280;60508;42.622;25.416;2023-12-14T04:18:14;96015.00;;;4.58;94.00
45078;BME280;60508;42.622;25.416;2023-12-14T04:20:41;95994.91;;;4.62;95.43
45078;BME280;60508;42.622;25.416;2023-12-14T04:23:27;95993.19;;;4.68;95.95
45078;BME280;60508;42.622;25.416;2023-12-14T04:25:54;95988.44;;;4.70;96.28
45078;BME280;60508;42.622;25.416;2023-12-14T04:28:40;95988.38;;;4.77;95.65
45078;BME280;60508;42.622;25.416;2023-12-14T04:31:10;95997.25;;;4.70;96.10
45078;BME280;60508;42.622;25.416;2023-12-14T04:33:57;96020.91;;;4.60;94.03
45078;BME280;60508;42.622;25.416;2023-12-14T04:36:25;96003.19;;;4.35;94.65
45078;BME280;60508;42.622;25.416;2023-12-14T04:38:51;96002.69;;;4.27;95.39
45078;BME280;60508;42.622;25.416;2023-12-14T04:41:38;95988.00;;;4.24;95.32
45078;BME280;60508;42.622;25.416;2023-12-14T04:44:05;95983.78;;;4.35;95.27
45078;BME280;60508;42.622;25.416;2023-12-14T04:46:32;95992.88;;;4.27;95.48
45078;BME280;60508;42.622;25.416;2023-12-14T04:49:19;96004.00;;;4.36;95.39
45078;BME280;60508;42.622;25.416;2023-12-14T04:51:46;96013.91;;;4.29;95.21
45078;BME280;60508;42.622;25.416;2023-12-14T04:54:12;96009.41;;;4.29;95.41
45078;BME280;60508;42.622;25.416;2023-12-14T04:56:39;96002.47;;;4.28;94.85
45078;BME280;60508;42.622;25.416;2023-12-14T04:59:27;95991.84;;;4.28;95.32
45078;BME280;60508;42.622;25.416;2023-12-14T05:01:55;95996.56;;;4.45;96.42
45078;BME280;60508;42.622;25.416;2023-12-14T05:04:21;96019.59;;;4.51;96.21
45078;BME280;60508;42.622;25.416;2023-12-14T05:06:48;95996.09;;;4.48;96.78
45078;BME280;60508;42.622;25.416;2023-12-14T05:09:15;95987.06;;;4.67;96.95
45078;BME280;60508;42.622;25.416;2023-12-14T05:11:42;95996.91;;;4.67;96.59
45078;BME280;60508;42.622;25.416;2023-12-14T05:14:09;96003.41;;;4.52;96.61
45078;BME280;60508;42.622;25.416;2023-12-14T05:16:56;95997.13;;;4.47;97.48
45078;BME280;60508;42.622;25.416;2023-12-14T05:19:23;95988.47;;;4.51;97.33
45078;BME280;60508;42.622;25.416;2023-12-14T05:21:50;95989.91;;;4.54;97.72
45078;BME280;60508;42.622;25.416;2023-12-14T05:24:36;95983.88;;;4.58;97.08
45078;BME280;60508;42.622;25.416;2023-12-14T05:27:03;95992.91;;;4.57;97.11
45078;BME280;60508;42.622;25.416;2023-12-14T05:29:50;95982.53;;;4.68;96.44
45078;BME280;60508;42.622;25.416;2023-12-14T05:32:17;95971.97;;;4.61;97.56
45078;BME280;60508;42.622;25.416;2023-12-14T05:34:44;95985.53;;;4.71;97.35
45078;BME280;60508;42.622;25.416;2023-12-14T05:37:10;95979.16;;;4.61;97.37
45078;BME280;60508;42.622;25.416;2023-12-14T05:39:37;95970.66;;;4.52;97.60
45078;BME280;60508;42.622;25.416;2023-12-14T05:42:07;95993.84;;;4.63;98.04
45078;BME280;60508;42.622;25.416;2023-12-14T05:44:34;95990.50;;;4.68;97.37
45078;BME280;60508;42.622;25.416;2023-12-14T05:47:01;96002.06;;;4.62;98.34
45078;BME280;60508;42.622;25.416;2023-12-14T05:49:48;95995.03;;;4.67;97.47
45078;BME280;60508;42.622;25.416;2023-12-14T05:52:14;95989.81;;;4.61;98.04
45078;BME280;60508;42.622;25.416;2023-12-14T05:55:02;95998.69;;;4.54;98.31
45078;BME280;60508;42.622;25.416;2023-12-14T05:57:28;96000.22;;;4.62;97.81
45078;BME280;60508;42.622;25.416;2023-12-14T05:59:55;96004.50;;;4.63;97.66
45078;BME280;60508;42.622;25.416;2023-12-14T06:02:23;95998.16;;;4.64;97.05
45078;BME280;60508;42.622;25.416;2023-12-14T06:04:49;95992.16;;;4.50;97.16
45078;BME280;60508;42.622;25.416;2023-12-14T06:07:36;95993.44;;;4.48;97.16
45078;BME280;60508;42.622;25.416;2023-12-14T06:10:03;96011.31;;;4.41;97.47
45078;BME280;60508;42.622;25.416;2023-12-14T06:12:30;96003.50;;;4.46;97.24
45078;BME280;60508;42.622;25.416;2023-12-14T06:14:58;96008.88;;;4.39;97.46
45078;BME280;60508;42.622;25.416;2023-12-14T06:17:24;96017.81;;;4.45;97.71
45078;BME280;60508;42.622;25.416;2023-12-14T06:20:12;95997.81;;;4.42;97.43
45078;BME280;60508;42.622;25.416;2023-12-14T06:22:39;96008.97;;;4.51;97.28
45078;BME280;60508;42.622;25.416;2023-12-14T06:25:07;96006.22;;;4.57;97.52
45078;BME280;60508;42.622;25.416;2023-12-14T06:27:54;96013.22;;;4.70;97.43
45078;BME280;60508;42.622;25.416;2023-12-14T06:30:21;96018.66;;;4.75;97.31
45078;BME280;60508;42.622;25.416;2023-12-14T06:32:47;96006.13;;;4.94;96.45
45078;BME280;60508;42.622;25.416;2023-12-14T06:35:14;96007.56;;;5.09;95.14
45078;BME280;60508;42.622;25.416;2023-12-14T06:37:41;96025.00;;;4.93;95.70
45078;BME280;60508;42.622;25.416;2023-12-14T06:40:31;96015.41;;;5.04;96.15
45078;BME280;60508;42.622;25.416;2023-12-14T06:42:57;96023.66;;;5.02;96.21
45078;BME280;60508;42.622;25.416;2023-12-14T06:45:45;96023.66;;;5.14;96.17
45078;BME280;60508;42.622;25.416;2023-12-14T06:48:12;96008.34;;;4.98;97.13
45078;BME280;60508;42.622;25.416;2023-12-14T06:50:39;96026.22;;;5.09;97.22
45078;BME280;60508;42.622;25.416;2023-12-14T06:53:26;96032.34;;;5.21;96.84
45078;BME280;60508;42.622;25.416;2023-12-14T06:55:52;96044.66;;;5.22;96.57
45078;BME280;60508;42.622;25.416;2023-12-14T06:58:19;96039.66;;;5.26;96.65
45078;BME280;60508;42.622;25.416;2023-12-14T07:00:46;96048.00;;;5.29;95.65
45078;BME280;60508;42.622;25.416;2023-12-14T07:03:13;96044.41;;;5.24;93.94
45078;BME280;60508;42.622;25.416;2023-12-14T07:05:41;96040.78;;;5.18;93.69
45078;BME280;60508;42.622;25.416;2023-12-14T07:08:07;96039.06;;;5.12;93.59
45078;BME280;60508;42.622;25.416;2023-12-14T07:10:34;96043.91;;;5.15;93.44
45078;BME280;60508;42.622;25.416;2023-12-14T07:13:01;96047.72;;;5.07;93.13
45078;BME280;60508;42.622;25.416;2023-12-14T07:15:28;96043.38;;;5.25;92.90
45078;BME280;60508;42.622;25.416;2023-12-14T07:17:55;96039.56;;;5.33;91.83
45078;BME280;60508;42.622;25.416;2023-12-14T07:20:21;96046.66;;;5.39;91.13
45078;BME280;60508;42.622;25.416;2023-12-14T07:22:49;96053.72;;;5.45;90.98
45078;BME280;60508;42.622;25.416;2023-12-14T07:25:36;96054.53;;;5.45;91.34
45078;BME280;60508;42.622;25.416;2023-12-14T07:28:02;96067.63;;;5.47;91.94
45078;BME280;60508;42.622;25.416;2023-12-14T07:30:29;96071.25;;;5.53;92.67
45078;BME280;60508;42.622;25.416;2023-12-14T07:32:55;96075.50;;;5.54;92.63
45078;BME280;60508;42.622;25.416;2023-12-14T07:35:22;96063.50;;;5.63;91.78
45078;BME280;60508;42.622;25.416;2023-12-14T07:38:10;96064.84;;;5.54;92.61
45078;BME280;60508;42.622;25.416;2023-12-14T07:40:37;96068.59;;;5.64;92.44
45078;BME280;60508;42.622;25.416;2023-12-14T07:43:27;96052.50;;;5.59;92.47
45078;BME280;60508;42.622;25.416;2023-12-14T07:45:55;96052.03;;;5.86;92.46
45078;BME280;60508;42.622;25.416;2023-12-14T07:48:21;96065.59;;;5.84;92.51
45078;BME280;60508;42.622;25.416;2023-12-14T07:51:09;96061.25;;;6.14;91.89
45078;BME280;60508;42.622;25.416;2023-12-14T07:53:35;96060.19;;;6.27;91.56
45078;BME280;60508;42.622;25.416;2023-12-14T07:56:03;96068.41;;;6.37;91.23
45078;BME280;60508;42.622;25.416;2023-12-14T07:58:30;96057.59;;;6.44;91.19
45078;BME280;60508;42.622;25.416;2023-12-14T08:00:57;96051.44;;;6.55;90.70
45078;BME280;60508;42.622;25.416;2023-12-14T08:03:45;96044.94;;;6.63;91.06
45078;BME280;60508;42.622;25.416;2023-12-14T08:06:12;96049.66;;;6.72;91.46
45078;BME280;60508;42.622;25.416;2023-12-14T08:08:59;96055.59;;;6.63;91.14
45078;BME280;60508;42.622;25.416;2023-12-14T08:11:27;96056.53;;;6.56;91.53
45078;BME280;60508;42.622;25.416;2023-12-14T08:13:54;96056.38;;;6.75;90.58
45078;BME280;60508;42.622;25.416;2023-12-14T08:16:41;96037.28;;;6.43;90.13
45078;BME280;60508;42.622;25.416;2023-12-14T08:19:08;96056.88;;;6.72;90.21
45078;BME280;60508;42.622;25.416;2023-12-14T08:21:34;96066.47;;;6.85;88.61
45078;BME280;60508;42.622;25.416;2023-12-14T08:24:01;96060.53;;;6.83;88.17
45078;BME280;60508;42.622;25.416;2023-12-14T08:26:48;96061.91;;;6.85;87.85
45078;BME280;60508;42.622;25.416;2023-12-14T08:29:16;96063.84;;;7.02;87.02
45078;BME280;60508;42.622;25.416;2023-12-14T08:31:42;96077.50;;;7.05;86.12
45078;BME280;60508;42.622;25.416;2023-12-14T08:34:10;96071.78;;;7.13;85.57
45078;BME280;60508;42.622;25.416;2023-12-14T08:36:56;96059.91;;;7.21;84.81
45078;BME280;60508;42.622;25.416;2023-12-14T08:39:23;96071.75;;;7.25;83.72
45078;BME280;60508;42.622;25.416;2023-12-14T08:41:49;96069.09;;;7.25;83.87
45078;BME280;60508;42.622;25.416;2023-12-14T08:44:39;96075.09;;;7.32;83.52
45078;BME280;60508;42.622;25.416;2023-12-14T08:47:06;96085.06;;;7.37;83.58
45078;BME280;60508;42.622;25.416;2023-12-14T08:49:35;96094.59;;;7.33;83.94
45078;BME280;60508;42.622;25.416;2023-12-14T08:52:02;96067.31;;;7.31;83.77
45078;BME280;60508;42.622;25.416;2023-12-14T08:54:50;96076.66;;;7.45;83.56
45078;BME280;60508;42.622;25.416;2023-12-14T08:57:17;96075.13;;;7.49;83.62
45078;BME280;60508;42.622;25.416;2023-12-14T09:00:04;96070.34;;;7.52;84.17
45078;BME280;60508;42.622;25.416;2023-12-14T09:02:32;96085.44;;;7.92;83.17
45078;BME280;60508;42.622;25.416;2023-12-14T09:04:59;96090.22;;;8.07;81.92
45078;BME280;60508;42.622;25.416;2023-12-14T09:07:26;96077.16;;;8.10;82.51
45078;BME280;60508;42.622;25.416;2023-12-14T09:10:12;96070.66;;;8.23;81.66
45078;BME280;60508;42.622;25.416;2023-12-14T09:12:39;96066.75;;;8.31;81.46
45078;BME280;60508;42.622;25.416;2023-12-14T09:15:06;96075.50;;;8.26;81.45
45078;BME280;60508;42.622;25.416;2023-12-14T09:17:33;96071.53;;;8.29;81.06
45078;BME280;60508;42.622;25.416;2023-12-14T09:20:20;96059.47;;;8.43;81.24
45078;BME280;60508;42.622;25.416;2023-12-14T09:22:46;96062.03;;;8.55;81.09
45078;BME280;60508;42.622;25.416;2023-12-14T09:25:33;96051.22;;;8.72;80.34
45078;BME280;60508;42.622;25.416;2023-12-14T09:28:02;96051.47;;;8.70;80.84
45078;BME280;60508;42.622;25.416;2023-12-14T09:30:29;96051.31;;;8.77;80.49
45078;BME280;60508;42.622;25.416;2023-12-14T09:32:56;96027.75;;;8.79;80.37
45078;BME280;60508;42.622;25.416;2023-12-14T09:35:23;96033.03;;;8.96;79.73
45078;BME280;60508;42.622;25.416;2023-12-14T09:37:50;96040.75;;;9.14;79.63
45078;BME280;60508;42.622;25.416;2023-12-14T09:40:38;96043.03;;;9.28;79.02
45078;BME280;60508;42.622;25.416;2023-12-14T09:43:06;96035.47;;;9.52;77.42
45078;BME280;60508;42.622;25.416;2023-12-14T09:45:54;96025.16;;;9.71;76.85
45078;BME280;60508;42.622;25.416;2023-12-14T09:48:22;96019.91;;;9.86;76.07
45078;BME280;60508;42.622;25.416;2023-12-14T09:50:49;96016.56;;;10.07;75.95
45078;BME280;60508;42.622;25.416;2023-12-14T09:53:16;96012.38;;;10.26;74.18
45078;BME280;60508;42.622;25.416;2023-12-14T09:55:43;96017.59;;;10.43;73.74
45078;BME280;60508;42.622;25.416;2023-12-14T09:58:09;96025.38;;;10.39;73.45
45078;BME280;60508;42.622;25.416;2023-12-14T10:00:39;96028.06;;;10.39;73.89
45078;BME280;60508;42.622;25.416;2023-12-14T10:03:24;96027.81;;;10.41;73.95
45078;BME280;60508;42.622;25.416;2023-12-14T10:05:56;96020.06;;;10.50;73.45
45078;BME280;60508;42.622;25.416;2023-12-14T10:08:23;96015.25;;;10.52;73.34
45078;BME280;60508;42.622;25.416;2023-12-14T10:11:15;96022.25;;;10.58;72.81
45078;BME280;60508;42.622;25.416;2023-12-14T10:13:42;96019.19;;;10.39;73.11
45078;BME280;60508;42.622;25.416;2023-12-14T10:16:09;96010.09;;;10.40;73.41
45078;BME280;60508;42.622;25.416;2023-12-14T10:18:57;96000.94;;;10.41;74.32
45078;BME280;60508;42.622;25.416;2023-12-14T10:21:26;95996.38;;;10.41;74.35
45078;BME280;60508;42.622;25.416;2023-12-14T10:23:56;96001.00;;;10.51;74.99
45078;BME280;60508;42.622;25.416;2023-12-14T10:26:44;95992.75;;;10.68;74.19
45078;BME280;60508;42.622;25.416;2023-12-14T10:29:11;95973.34;;;10.56;74.07
45078;BME280;60508;42.622;25.416;2023-12-14T10:31:38;95983.03;;;10.67;73.85
45078;BME280;60508;42.622;25.416;2023-12-14T10:34:05;95993.84;;;10.72;73.76
45078;BME280;60508;42.622;25.416;2023-12-14T10:36:33;95984.13;;;10.66;73.76
45078;BME280;60508;42.622;25.416;2023-12-14T10:39:01;95980.50;;;11.08;73.09
45078;BME280;60508;42.622;25.416;2023-12-14T10:41:48;95971.63;;;11.59;70.93
45078;BME280;60508;42.622;25.416;2023-12-14T10:44:17;95975.38;;;12.15;69.38
45078;BME280;60508;42.622;25.416;2023-12-14T10:46:48;95985.41;;;12.74;66.71
45078;BME280;60508;42.622;25.416;2023-12-14T10:49:36;95967.97;;;13.06;64.89
45078;BME280;60508;42.622;25.416;2023-12-14T10:52:03;95967.56;;;13.28;63.60
45078;BME280;60508;42.622;25.416;2023-12-14T10:54:32;95969.72;;;13.31;63.27
45078;BME280;60508;42.622;25.416;2023-12-14T10:57:01;95977.28;;;13.35;62.68
45078;BME280;60508;42.622;25.416;2023-12-14T10:59:50;95978.63;;;13.37;62.45
45078;BME280;60508;42.622;25.416;2023-12-14T11:02:22;95963.00;;;13.34;62.51
45078;BME280;60508;42.622;25.416;2023-12-14T11:05:11;95970.44;;;13.03;62.95
45078;BME280;60508;42.622;25.416;2023-12-14T11:07:52;95967.31;;;12.80;64.12
45078;BME280;60508;42.622;25.416;2023-12-14T11:10:42;95964.72;;;12.54;65.86
45078;BME280;60508;42.622;25.416;2023-12-14T11:13:12;95977.44;;;12.49;66.03
45078;BME280;60508;42.622;25.416;2023-12-14T11:16:00;95970.28;;;12.03;67.06
45078;BME280;60508;42.622;25.416;2023-12-14T11:18:27;95956.81;;;11.98;68.07
45078;BME280;60508;42.622;25.416;2023-12-14T11:20:58;95963.84;;;11.88;68.13
45078;BME280;60508;42.622;25.416;2023-12-14T11:23:27;95973.78;;;11.93;68.32
45078;BME280;60508;42.622;25.416;2023-12-14T11:26:00;95970.31;;;11.93;68.04
45078;BME280;60508;42.622;25.416;2023-12-14T11:28:40;95959.78;;;11.86;68.53
45078;BME280;60508;42.622;25.416;2023-12-14T11:31:10;95957.38;;;11.84;68.44
45078;BME280;60508;42.622;25.416;2023-12-14T11:33:38;95952.53;;;11.81;68.69
45078;BME280;60508;42.622;25.416;2023-12-14T11:36:26;95954.16;;;11.82;69.42
45078;BME280;60508;42.622;25.416;2023-12-14T11:38:54;95955.78;;;11.94;68.34
45078;BME280;60508;42.622;25.416;2023-12-14T11:41:41;95947.69;;;11.88;68.79
45078;BME280;60508;42.622;25.416;2023-12-14T11:44:08;95938.81;;;11.73;69.03
45078;BME280;60508;42.622;25.416;2023-12-14T11:46:34;95943.66;;;11.81;69.41
45078;BME280;60508;42.622;25.416;2023-12-14T11:49:01;95946.06;;;11.93;68.36
45078;BME280;60508;42.622;25.416;2023-12-14T11:51:29;95944.72;;;11.90;68.93
45078;BME280;60508;42.622;25.416;2023-12-14T11:54:00;95943.38;;;11.93;68.66
45078;BME280;60508;42.622;25.416;2023-12-14T11:56:50;95927.22;;;11.93;68.31
45078;BME280;60508;42.622;25.416;2023-12-14T11:59:18;95939.06;;;11.92;68.19
45078;BME280;60508;42.622;25.416;2023-12-14T12:01:58;95933.69;;;11.76;68.52
45078;BME280;60508;42.622;25.416;2023-12-14T12:04:25;95938.81;;;11.78;69.02
45078;BME280;60508;42.622;25.416;2023-12-14T12:07:12;95934.25;;;11.73;70.00
45078;BME280;60508;42.622;25.416;2023-12-14T12:09:41;95937.75;;;11.68;70.83
45078;BME280;60508;42.622;25.416;2023-12-14T12:12:29;95933.97;;;11.75;71.21
45078;BME280;60508;42.622;25.416;2023-12-14T12:14:59;95939.59;;;11.88;70.54
45078;BME280;60508;42.622;25.416;2023-12-14T12:17:47;95933.69;;;11.76;70.94
45078;BME280;60508;42.622;25.416;2023-12-14T12:20:13;95948.47;;;11.99;70.05
45078;BME280;60508;42.622;25.416;2023-12-14T12:23:01;95950.66;;;11.87;70.75
45078;BME280;60508;42.622;25.416;2023-12-14T12:25:28;95944.50;;;11.66;71.76
45078;BME280;60508;42.622;25.416;2023-12-14T12:28:15;95942.31;;;11.58;72.39
45078;BME280;60508;42.622;25.416;2023-12-14T12:30:41;95957.09;;;11.70;72.01
45078;BME280;60508;42.622;25.416;2023-12-14T12:33:09;95964.66;;;11.63;71.72
45078;BME280;60508;42.622;25.416;2023-12-14T12:35:35;95954.16;;;11.62;72.21
45078;BME280;60508;42.622;25.416;2023-12-14T12:38:02;95950.91;;;11.70;71.73
45078;BME280;60508;42.622;25.416;2023-12-14T12:40:29;95960.06;;;11.69;71.94
45078;BME280;60508;42.622;25.416;2023-12-14T12:42:57;95961.13;;;11.83;71.57
45078;BME280;60508;42.622;25.416;2023-12-14T12:45:24;95956.56;;;11.89;71.28
45078;BME280;60508;42.622;25.416;2023-12-14T12:47:54;95954.13;;;11.87;71.53
45078;BME280;60508;42.622;25.416;2023-12-14T12:50:21;95962.75;;;11.84;71.31
45078;BME280;60508;42.622;25.416;2023-12-14T12:52:48;95951.97;;;11.84;71.08
45078;BME280;60508;42.622;25.416;2023-12-14T12:55:15;95948.22;;;11.75;71.31
45078;BME280;60508;42.622;25.416;2023-12-14T12:57:42;95945.25;;;11.87;71.59
45078;BME280;60508;42.622;25.416;2023-12-14T13:00:29;95943.13;;;11.68;72.25
45078;BME280;60508;42.622;25.416;2023-12-14T13:02:56;95945.50;;;11.80;71.30
45078;BME280;60508;42.622;25.416;2023-12-14T13:05:42;95961.97;;;11.43;72.84
45078;BME280;60508;42.622;25.416;2023-12-14T13:08:10;95960.91;;;11.39;73.26
45078;BME280;60508;42.622;25.416;2023-12-14T13:10:37;95969.75;;;11.39;72.89
45078;BME280;60508;42.622;25.416;2023-12-14T13:13:06;95974.34;;;11.49;72.56
45078;BME280;60508;42.622;25.416;2023-12-14T13:15:38;95966.81;;;11.36;73.42
45078;BME280;60508;42.622;25.416;2023-12-14T13:18:26;95967.06;;;11.29;73.40
45078;BME280;60508;42.622;25.416;2023-12-14T13:20:53;95965.72;;;11.31;73.80
45078;BME280;60508;42.622;25.416;2023-12-14T13:23:20;95958.72;;;11.25;73.83
45078;BME280;60508;42.622;25.416;2023-12-14T13:26:08;95985.63;;;11.30;73.58